Time;durP1;ratioP1;P1;durP2;ratioP2;P2;SDS_P1;SDS_P2;PMS_P1;PMS_P2;Temp;Humidity;BMP_temperature;BMP_pressure;BME280_temperature;BME280_humidity;BME280_pressure;Samples;Min_cycle;Max_cycle;Signal;HPM_P1;HPM_P2
2021/07/31 00:01:33;;;;;;;6.78;5.18;;;26.20;96.70;;;;;;4885853;29;20533;-73
2021/07/31 00:04:04;;;;;;;5.47;5.00;;;26.20;96.70;;;;;;4900789;29;20042;-72
2021/07/31 00:06:33;;;;;;;7.85;5.38;;;26.00;96.70;;;;;;4901724;29;20054;-73
2021/07/31 00:09:01;;;;;;;8.77;5.32;;;25.90;96.70;;;;;;4900178;29;20071;-73
2021/07/31 00:11:30;;;;;;;7.72;5.93;;;25.80;96.70;;;;;;4893907;29;20059;-73
2021/07/31 00:13:58;;;;;;;5.55;5.05;;;25.70;96.70;;;;;;4896487;29;20055;-73
2021/07/31 00:16:27;;;;;;;6.03;5.03;;;25.80;96.70;;;;;;4904348;29;20066;-73
2021/07/31 00:18:55;;;;;;;8.55;4.82;;;26.00;96.70;;;;;;4896830;29;20051;-73
2021/07/31 00:21:26;;;;;;;4.60;4.20;;;26.20;96.70;;;;;;4902496;29;20048;-73
2021/07/31 00:23:57;;;;;;;5.15;4.20;;;26.30;96.70;;;;;;4902292;29;20098;-73
2021/07/31 00:26:26;;;;;;;6.00;4.63;;;26.20;96.70;;;;;;4917046;29;20052;-72
2021/07/31 00:28:55;;;;;;;7.18;4.35;;;26.00;96.70;;;;;;4913927;29;20258;-73
2021/07/31 00:31:24;;;;;;;5.72;4.18;;;25.90;96.70;;;;;;4901278;29;20052;-73
2021/07/31 00:33:54;;;;;;;7.13;4.43;;;26.10;96.70;;;;;;4915583;29;20127;-73
2021/07/31 00:37:03;;;;;;;5.28;4.78;;;26.20;96.70;;;;;;4899808;29;20047;-73
2021/07/31 00:39:38;;;;;;;6.93;4.35;;;25.90;96.70;;;;;;4902736;29;20067;-72
2021/07/31 00:42:07;;;;;;;5.70;4.22;;;25.60;96.70;;;;;;4882995;29;20052;-72
2021/07/31 00:44:36;;;;;;;6.22;4.32;;;25.80;96.70;;;;;;4903006;29;20063;-72
2021/07/31 00:47:06;;;;;;;5.57;4.47;;;25.80;96.70;;;;;;4889256;29;20040;-73
2021/07/31 00:49:35;;;;;;;5.55;4.03;;;25.90;96.70;;;;;;4908282;29;20510;-73
2021/07/31 00:52:56;;;;;;;8.10;4.35;;;25.90;96.70;;;;;;4904033;29;20164;-73
2021/07/31 00:55:28;;;;;;;5.00;4.43;;;26.10;96.70;;;;;;4921717;29;20048;-73
2021/07/31 00:58:17;;;;;;;5.50;4.60;;;26.10;96.70;;;;;;4922089;29;20580;-73
2021/07/31 01:00:57;;;;;;;5.18;4.20;;;25.90;96.70;;;;;;4904683;29;20123;-73
2021/07/31 01:03:26;;;;;;;5.68;4.28;;;26.10;96.70;;;;;;4907701;29;20463;-74
2021/07/31 01:05:58;;;;;;;6.82;4.68;;;26.10;96.70;;;;;;4904710;29;20120;-74
2021/07/31 01:08:28;;;;;;;6.78;4.10;;;26.10;96.70;;;;;;4908491;29;20087;-73
2021/07/31 01:11:02;;;;;;;7.68;4.70;;;26.10;96.70;;;;;;4921759;28;20052;-73
2021/07/31 01:13:34;;;;;;;4.57;4.10;;;26.10;96.70;;;;;;4924514;29;20511;-73
2021/07/31 01:16:09;;;;;;;7.45;4.90;;;26.20;96.70;;;;;;4907252;29;20076;-73
2021/07/31 01:18:41;;;;;;;5.50;4.03;;;25.90;96.70;;;;;;4907737;29;20152;-73
2021/07/31 01:21:37;;;;;;;4.78;4.07;;;25.70;96.70;;;;;;4933218;28;20052;-73
2021/07/31 01:24:42;;;;;;;6.88;4.57;;;25.60;96.70;;;;;;4914720;29;20056;-73
2021/07/31 01:27:10;;;;;;;9.45;4.75;;;25.80;96.70;;;;;;4910278;29;20040;-73
2021/07/31 01:29:40;;;;;;;5.25;4.47;;;25.90;96.70;;;;;;4939281;28;20048;-74
2021/07/31 01:32:10;;;;;;;5.95;4.68;;;25.90;96.70;;;;;;4936351;28;20060;-73
2021/07/31 01:34:42;;;;;;;6.28;4.25;;;25.60;96.70;;;;;;4905257;29;20064;-74
2021/07/31 01:37:16;;;;;;;11.02;5.25;;;25.60;96.70;;;;;;4908257;29;20497;-74
2021/07/31 01:39:52;;;;;;;7.05;4.78;;;25.70;96.70;;;;;;4901427;29;20064;-74
2021/07/31 01:42:27;;;;;;;5.03;4.53;;;25.60;96.70;;;;;;4896743;29;20529;-73
2021/07/31 01:45:05;;;;;;;6.80;4.68;;;25.60;96.70;;;;;;4907900;29;20048;-72
2021/07/31 01:47:41;;;;;;;6.15;4.35;;;25.70;96.70;;;;;;4905982;29;20056;-74
2021/07/31 01:50:12;;;;;;;5.35;4.22;;;25.50;96.70;;;;;;4937726;28;20152;-74
2021/07/31 01:52:50;;;;;;;5.05;4.53;;;25.40;96.70;;;;;;4909115;29;20044;-74
2021/07/31 01:58:52;;;;;;;5.80;4.28;;;25.40;96.70;;;;;;4901879;29;20037;-74
2021/07/31 02:01:22;;;;;;;5.93;4.50;;;25.30;96.70;;;;;;4907136;29;20048;-73
2021/07/31 02:03:52;;;;;;;5.78;4.50;;;25.40;96.70;;;;;;4903252;29;20052;-74
2021/07/31 02:07:01;;;;;;;6.32;4.68;;;25.40;96.70;;;;;;4908485;29;20142;-73
2021/07/31 02:09:31;;;;;;;5.25;4.55;;;25.40;96.70;;;;;;4917106;29;20063;-74
2021/07/31 02:12:00;;;;;;;5.95;4.68;;;25.50;96.70;;;;;;4916197;29;20816;-74
2021/07/31 02:14:29;;;;;;;6.95;4.80;;;25.50;96.70;;;;;;4934172;28;20099;-74
2021/07/31 02:16:59;;;;;;;5.68;4.78;;;25.40;96.70;;;;;;4938104;29;20139;-73
2021/07/31 02:19:30;;;;;;;6.50;4.57;;;25.30;96.70;;;;;;4905593;29;20040;-73
2021/07/31 02:22:07;;;;;;;7.43;5.38;;;25.30;96.70;;;;;;4919987;29;20310;-73
2021/07/31 02:25:10;;;;;;;9.85;5.03;;;25.20;96.70;;;;;;4908200;29;20058;-73
2021/07/31 02:28:16;;;;;;;8.40;4.47;;;25.20;96.70;;;;;;4878928;29;20057;-74
2021/07/31 02:30:44;;;;;;;6.15;4.40;;;25.10;96.70;;;;;;4885525;29;20108;-74
2021/07/31 02:33:28;;;;;;;6.10;4.40;;;25.10;96.70;;;;;;4884439;29;20692;-73
2021/07/31 02:36:03;;;;;;;;;;;25.20;96.70;;;;;;4920655;29;20110;-73
2021/07/31 02:38:57;;;;;;;7.28;4.53;;;25.10;96.70;;;;;;4907036;29;20149;-73
2021/07/31 02:41:28;;;;;;;6.65;4.70;;;25.00;96.70;;;;;;4906756;29;20507;-74
2021/07/31 02:44:05;;;;;;;6.72;4.78;;;24.90;96.70;;;;;;4890613;29;20138;-72
2021/07/31 02:46:40;;;;;;;6.55;4.30;;;24.90;96.70;;;;;;4918369;29;20172;-72
2021/07/31 02:49:16;;;;;;;4.40;4.00;;;24.90;96.70;;;;;;4908244;29;20365;-72
2021/07/31 02:51:44;;;;;;;5.95;4.38;;;25.00;96.70;;;;;;4919772;28;20052;-73
2021/07/31 02:54:33;;;;;;;7.63;4.55;;;25.00;96.70;;;;;;4905992;29;20067;-72
2021/07/31 02:57:07;;;;;;;5.65;4.43;;;25.10;96.70;;;;;;4920478;28;20048;-73
2021/07/31 02:59:51;;;;;;;7.65;4.30;;;25.20;96.70;;;;;;4905770;29;20126;-71
2021/07/31 03:02:25;;;;;;;5.53;4.47;;;25.10;96.70;;;;;;4889529;29;20048;-72
2021/07/31 03:05:05;;;;;;;5.65;4.22;;;25.20;96.70;;;;;;4889182;29;20458;-72
2021/07/31 03:07:35;;;;;;;5.05;4.50;;;25.10;96.70;;;;;;4911626;29;20076;-73
2021/07/31 03:10:07;;;;;;;6.30;4.05;;;25.20;96.70;;;;;;4920849;29;20056;-73
2021/07/31 03:12:42;;;;;;;5.25;4.13;;;25.20;96.70;;;;;;4902414;29;20088;-72
2021/07/31 03:15:12;;;;;;;5.82;4.35;;;25.00;96.70;;;;;;4903795;29;20931;-72
2021/07/31 03:17:42;;;;;;;5.53;4.57;;;25.00;96.70;;;;;;4906146;29;20054;-73
2021/07/31 03:20:14;;;;;;;5.57;4.30;;;24.80;96.70;;;;;;4905269;29;20052;-73
2021/07/31 03:22:49;;;;;;;5.78;4.63;;;24.60;96.70;;;;;;4923878;29;20131;-73
2021/07/31 03:25:18;;;;;;;6.95;4.93;;;24.50;96.70;;;;;;4904382;29;20035;-73
2021/07/31 03:27:48;;;;;;;5.82;4.65;;;24.40;96.70;;;;;;4906322;29;20040;-73
2021/07/31 03:30:19;;;;;;;6.28;4.57;;;24.50;96.70;;;;;;4906058;29;20043;-72
2021/07/31 03:33:11;;;;;;;5.20;4.70;;;24.50;96.70;;;;;;4908379;29;20052;-72
2021/07/31 03:35:42;;;;;;;5.60;4.55;;;24.60;96.70;;;;;;4913658;29;20111;-72
2021/07/31 03:38:31;;;;;;;6.97;4.88;;;24.60;96.70;;;;;;4918297;28;20104;-72
2021/07/31 03:41:00;;;;;;;5.90;4.40;;;24.50;96.70;;;;;;4902385;29;20388;-73
2021/07/31 03:43:39;;;;;;;6.25;4.95;;;24.60;96.70;;;;;;4907019;29;20388;-73
2021/07/31 03:46:09;;;;;;;6.00;4.80;;;24.60;96.70;;;;;;4903163;29;20045;-72
2021/07/31 03:48:41;;;;;;;5.72;4.50;;;24.60;96.70;;;;;;4904701;29;20079;-72
2021/07/31 03:51:11;;;;;;;5.85;4.82;;;24.40;96.70;;;;;;4906507;29;20103;-72
2021/07/31 03:53:44;;;;;;;5.97;5.00;;;24.40;96.70;;;;;;4903179;29;20059;-72
2021/07/31 03:56:14;;;;;;;6.78;4.78;;;24.60;96.70;;;;;;4916446;29;20048;-72
2021/07/31 03:58:49;;;;;;;8.02;4.80;;;24.60;96.70;;;;;;4932169;28;20416;-73
2021/07/31 04:01:26;;;;;;;10.80;4.70;;;24.60;96.70;;;;;;4904550;29;20047;-73
2021/07/31 04:04:02;;;;;;;5.15;4.35;;;24.40;96.70;;;;;;4917088;28;20044;-73
2021/07/31 04:06:31;;;;;;;6.35;4.63;;;24.50;96.70;;;;;;4918006;29;20053;-73
2021/07/31 04:09:18;;;;;;;7.35;4.35;;;24.40;96.70;;;;;;4903820;29;20438;-73
2021/07/31 04:12:06;;;;;;;7.93;4.47;;;24.30;96.70;;;;;;4906931;29;20107;-73
2021/07/31 04:15:14;;;;;;;9.02;4.60;;;24.20;96.70;;;;;;4874021;29;20435;-73
2021/07/31 04:17:44;;;;;;;6.95;4.47;;;24.10;96.70;;;;;;4889296;29;20051;-73
2021/07/31 04:20:13;;;;;;;7.03;4.55;;;24.30;96.70;;;;;;4902192;29;20040;-73
2021/07/31 04:22:42;;;;;;;7.28;4.53;;;24.30;96.70;;;;;;4904472;29;20511;-72
2021/07/31 04:25:10;;;;;;;11.13;5.68;;;24.30;96.70;;;;;;4909653;29;20127;-71
2021/07/31 04:27:38;;;;;;;5.95;4.30;;;24.30;96.70;;;;;;4906156;29;20079;-72
2021/07/31 04:30:07;;;;;;;6.05;4.53;;;24.40;96.70;;;;;;4918282;29;20072;-72
2021/07/31 04:32:37;;;;;;;7.82;4.80;;;24.30;96.70;;;;;;4906199;29;20083;-73
2021/07/31 04:35:07;;;;;;;8.13;5.10;;;24.20;96.70;;;;;;4911093;29;20048;-73
2021/07/31 04:37:36;;;;;;;10.10;4.65;;;24.00;96.70;;;;;;4923510;28;20429;-73
2021/07/31 04:40:06;;;;;;;6.90;4.50;;;23.90;96.70;;;;;;4919269;29;20099;-73
2021/07/31 04:42:34;;;;;;;5.35;4.57;;;23.90;96.70;;;;;;4924169;28;20499;-72
2021/07/31 04:45:03;;;;;;;8.35;5.03;;;23.80;96.70;;;;;;4924275;29;20048;-73
2021/07/31 04:47:38;;;;;;;6.70;4.70;;;24.00;96.70;;;;;;4892535;29;20072;-73
2021/07/31 04:50:07;;;;;;;8.70;5.47;;;24.10;96.70;;;;;;4909495;29;20040;-73
2021/07/31 04:52:36;;;;;;;7.40;4.35;;;24.20;96.70;;;;;;4909621;29;20056;-73
2021/07/31 04:55:06;;;;;;;7.70;4.55;;;24.20;96.70;;;;;;4910504;29;20044;-73
2021/07/31 04:57:34;;;;;;;7.68;5.10;;;24.20;96.70;;;;;;4907303;29;20043;-73
2021/07/31 05:00:04;;;;;;;5.68;4.95;;;24.30;96.70;;;;;;4907652;29;20040;-73
2021/07/31 05:02:33;;;;;;;8.18;4.60;;;24.20;96.70;;;;;;4920905;29;20107;-71
2021/07/31 05:05:03;;;;;;;8.05;4.63;;;24.10;96.70;;;;;;4909348;29;20036;-72
2021/07/31 05:07:31;;;;;;;6.25;4.68;;;24.30;96.70;;;;;;4916838;28;20064;-72
2021/07/31 05:10:00;;;;;;;7.60;5.43;;;24.40;96.70;;;;;;4918696;29;20826;-72
2021/07/31 05:12:28;;;;;;;8.07;4.90;;;24.30;96.70;;;;;;4900089;29;20596;-71
2021/07/31 05:14:58;;;;;;;5.57;4.85;;;24.10;96.70;;;;;;4907607;29;20040;-71
2021/07/31 05:17:26;;;;;;;7.13;4.63;;;23.70;96.70;;;;;;4903059;29;20035;-71
2021/07/31 05:19:54;;;;;;;5.22;4.72;;;24.00;96.70;;;;;;4908674;29;20044;-72
2021/07/31 05:22:24;;;;;;;6.18;4.55;;;24.10;96.70;;;;;;4903984;29;20513;-72
2021/07/31 05:24:53;;;;;;;4.82;4.30;;;24.20;96.70;;;;;;4892176;29;20071;-72
2021/07/31 05:27:22;;;;;;;7.18;5.00;;;24.50;96.70;;;;;;4904726;29;20402;-73
2021/07/31 05:29:50;;;;;;;6.88;5.18;;;24.60;96.70;;;;;;4905241;29;20044;-73
2021/07/31 05:32:18;;;;;;;7.03;4.65;;;24.50;96.70;;;;;;4905717;29;20057;-73
2021/07/31 05:34:47;;;;;;;5.72;4.85;;;24.60;96.70;;;;;;4905547;29;20121;-74
2021/07/31 05:37:15;;;;;;;6.22;4.88;;;24.50;96.70;;;;;;4922070;29;20144;-76
2021/07/31 05:39:45;;;;;;;8.32;4.82;;;24.40;96.70;;;;;;4903073;29;20052;-77
2021/07/31 05:42:15;;;;;;;7.65;4.90;;;24.50;96.70;;;;;;4892655;29;20392;-73
2021/07/31 05:44:43;;;;;;;7.70;4.43;;;24.40;96.70;;;;;;4900976;29;20555;-74
2021/07/31 05:47:12;;;;;;;5.47;4.95;;;24.60;96.70;;;;;;4904830;29;20138;-72
2021/07/31 05:49:40;;;;;;;5.25;4.68;;;24.70;96.70;;;;;;4884846;29;20100;-73
2021/07/31 05:52:09;;;;;;;6.80;4.85;;;24.70;96.70;;;;;;4933304;28;20052;-77
2021/07/31 05:54:37;;;;;;;11.13;5.15;;;24.80;96.70;;;;;;4902105;29;20518;-74
2021/07/31 05:57:07;;;;;;;7.85;5.30;;;24.60;96.70;;;;;;4881823;29;20056;-74
2021/07/31 05:59:36;;;;;;;8.48;4.78;;;24.60;96.70;;;;;;4905283;29;20131;-73
2021/07/31 06:02:06;;;;;;;12.32;5.15;;;24.60;96.70;;;;;;4901337;29;20052;-73
2021/07/31 06:04:35;;;;;;;9.40;6.28;;;24.60;96.70;;;;;;4907239;29;20167;-73
2021/07/31 06:07:06;;;;;;;11.82;8.27;;;24.60;96.70;;;;;;4909275;29;20068;-74
2021/07/31 06:09:35;;;;;;;11.02;6.57;;;24.60;96.70;;;;;;4907004;29;20040;-75
2021/07/31 06:12:04;;;;;;;6.97;5.65;;;24.70;96.70;;;;;;4906867;29;20056;-74
2021/07/31 06:14:36;;;;;;;10.85;6.10;;;24.70;96.70;;;;;;4904534;29;20044;-73
2021/07/31 06:17:05;;;;;;;8.68;5.43;;;24.70;96.70;;;;;;4920500;29;20041;-74
2021/07/31 06:19:34;;;;;;;7.53;5.43;;;24.70;96.70;;;;;;4891315;29;20052;-73
2021/07/31 06:22:03;;;;;;;9.10;5.18;;;24.60;96.70;;;;;;4914343;29;20507;-73
2021/07/31 06:24:31;;;;;;;7.30;4.85;;;24.70;96.70;;;;;;4908178;29;20529;-73
2021/07/31 06:26:59;;;;;;;7.95;4.72;;;24.70;96.70;;;;;;4904233;29;20039;-73
2021/07/31 06:29:28;;;;;;;6.68;5.13;;;24.70;96.70;;;;;;4904535;29;20044;-73
2021/07/31 06:31:57;;;;;;;5.68;4.40;;;24.90;96.70;;;;;;4905815;29;20566;-73
2021/07/31 06:34:26;;;;;;;8.27;4.88;;;25.00;96.70;;;;;;4905244;29;20067;-74
2021/07/31 06:36:54;;;;;;;6.13;5.22;;;25.30;96.70;;;;;;4904580;29;20040;-74
2021/07/31 06:39:25;;;;;;;7.00;5.55;;;25.40;96.70;;;;;;4907381;29;20044;-75
2021/07/31 06:41:54;;;;;;;6.47;4.47;;;25.40;96.70;;;;;;4904413;29;20056;-75
2021/07/31 06:44:22;;;;;;;6.53;5.22;;;25.50;96.70;;;;;;4905910;29;20044;-75
2021/07/31 06:46:50;;;;;;;6.93;5.50;;;25.50;96.70;;;;;;4919283;29;20048;-75
2021/07/31 06:49:20;;;;;;;8.35;5.43;;;25.50;96.70;;;;;;4904705;29;20529;-75
2021/07/31 06:51:49;;;;;;;8.57;5.22;;;25.60;96.70;;;;;;4909674;28;20076;-75
2021/07/31 06:54:20;;;;;;;5.63;5.13;;;25.60;96.70;;;;;;4936462;28;20056;-73
2021/07/31 06:56:49;;;;;;;8.32;5.60;;;25.80;96.70;;;;;;4902120;29;20047;-74
2021/07/31 06:59:17;;;;;;;5.85;5.25;;;25.80;96.70;;;;;;4906457;29;20040;-75
2021/07/31 07:01:46;;;;;;;6.93;4.88;;;25.80;96.70;;;;;;4902986;29;20044;-73
2021/07/31 07:04:14;;;;;;;6.78;5.05;;;25.80;96.70;;;;;;4904726;29;20040;-73
2021/07/31 07:06:46;;;;;;;9.15;5.18;;;26.00;96.70;;;;;;4905912;29;20103;-75
2021/07/31 07:09:15;;;;;;;5.88;5.28;;;26.00;96.70;;;;;;4889434;29;20044;-77
2021/07/31 07:11:44;;;;;;;7.55;5.50;;;26.10;96.70;;;;;;4905924;29;20044;-77
2021/07/31 07:14:12;;;;;;;5.85;4.97;;;26.10;96.70;;;;;;4907956;29;20051;-78
2021/07/31 07:16:40;;;;;;;5.57;4.70;;;26.20;96.70;;;;;;4907472;29;20059;-77
2021/07/31 07:19:09;;;;;;;4.82;4.38;;;26.20;96.70;;;;;;4907180;29;20071;-76
2021/07/31 07:21:37;;;;;;;7.20;5.43;;;26.30;96.70;;;;;;4888529;29;20144;-75
2021/07/31 07:24:07;;;;;;;5.50;5.00;;;26.30;96.70;;;;;;4905091;29;20289;-77
2021/07/31 07:26:37;;;;;;;5.55;4.57;;;26.40;96.70;;;;;;4904107;29;20566;-73
2021/07/31 07:29:06;;;;;;;7.10;4.88;;;26.50;96.70;;;;;;4906490;29;20108;-74
2021/07/31 07:31:34;;;;;;;10.32;5.30;;;26.60;96.70;;;;;;4907636;29;20600;-73
2021/07/31 07:34:02;;;;;;;9.75;5.43;;;26.60;96.70;;;;;;4907302;29;20048;-74
2021/07/31 07:36:30;;;;;;;8.68;4.85;;;26.70;96.70;;;;;;4934860;28;20051;-74
2021/07/31 07:38:59;;;;;;;8.32;5.20;;;26.70;96.70;;;;;;4884834;29;20067;-73
2021/07/31 07:41:28;;;;;;;6.82;5.70;;;26.80;96.70;;;;;;4917026;29;20439;-74
2021/07/31 07:43:57;;;;;;;7.30;4.47;;;26.90;96.70;;;;;;4908071;29;20494;-74
2021/07/31 07:46:25;;;;;;;7.18;4.93;;;27.00;96.70;;;;;;4903948;29;20048;-75
2021/07/31 07:48:54;;;;;;;7.75;5.47;;;27.00;96.70;;;;;;4920445;28;20099;-75
2021/07/31 07:51:22;;;;;;;9.63;5.88;;;27.10;96.70;;;;;;4904762;29;20040;-80
2021/07/31 07:53:50;;;;;;;7.68;4.90;;;27.10;96.70;;;;;;4906807;29;20367;-74
2021/07/31 07:56:18;;;;;;;9.32;5.13;;;27.10;96.70;;;;;;4907724;29;20079;-74
2021/07/31 07:58:53;;;;;;;6.97;5.40;;;27.10;96.70;;;;;;4910041;29;20418;-74
2021/07/31 08:01:21;;;;;;;8.20;5.53;;;27.20;96.70;;;;;;4910794;29;20048;-73
2021/07/31 08:03:50;;;;;;;5.68;5.05;;;27.30;96.70;;;;;;4907309;29;20549;-73
2021/07/31 08:06:18;;;;;;;8.65;5.43;;;27.40;96.70;;;;;;4910444;29;20107;-73
2021/07/31 08:08:46;;;;;;;9.48;6.03;;;27.50;96.70;;;;;;4903607;29;20084;-73
2021/07/31 08:11:15;;;;;;;6.47;5.40;;;27.60;96.70;;;;;;4909767;29;20058;-73
2021/07/31 08:13:43;;;;;;;7.95;5.47;;;27.70;96.70;;;;;;4908968;29;20044;-73
2021/07/31 08:16:13;;;;;;;6.55;5.57;;;27.70;96.70;;;;;;4909648;29;20603;-73
2021/07/31 08:18:41;;;;;;;5.70;5.20;;;27.60;96.70;;;;;;4923254;28;20075;-73
2021/07/31 08:21:10;;;;;;;8.50;5.65;;;27.60;96.70;;;;;;4910826;29;20048;-73
2021/07/31 08:23:38;;;;;;;8.02;5.13;;;27.60;96.70;;;;;;4920224;28;20056;-73
2021/07/31 08:26:10;;;;;;;7.53;5.18;;;27.80;96.70;;;;;;4906943;29;20402;-74
2021/07/31 08:28:39;;;;;;;6.32;5.72;;;27.90;96.70;;;;;;4922124;29;20060;-73
2021/07/31 08:31:08;;;;;;;8.55;5.20;;;28.00;96.70;;;;;;4908960;29;20058;-73
2021/07/31 08:33:38;;;;;;;6.72;5.07;;;28.00;96.70;;;;;;4908772;29;20059;-73
2021/07/31 08:36:08;;;;;;;7.63;5.38;;;28.10;96.70;;;;;;4910114;29;20040;-74
2021/07/31 08:38:36;;;;;;;7.95;5.45;;;28.20;96.70;;;;;;4908112;29;20459;-73
2021/07/31 08:41:05;;;;;;;7.70;5.45;;;28.30;96.70;;;;;;4910993;29;20447;-72
2021/07/31 08:43:34;;;;;;;5.75;5.22;;;28.40;96.70;;;;;;4905065;29;20071;-73
2021/07/31 08:46:08;;;;;;;6.35;5.13;;;28.40;96.70;;;;;;4908515;29;20684;-73
2021/07/31 08:48:39;;;;;;;7.05;5.40;;;28.50;96.70;;;;;;4909016;29;20510;-73
2021/07/31 08:51:09;;;;;;;6.38;5.35;;;28.60;96.70;;;;;;4906840;29;20040;-73
2021/07/31 08:53:38;;;;;;;5.60;4.93;;;28.70;96.70;;;;;;4904714;29;20051;-73
2021/07/31 08:56:06;;;;;;;9.00;6.30;;;28.60;96.70;;;;;;4908166;29;20577;-73
2021/07/31 08:58:39;;;;;;;9.00;5.60;;;28.50;96.70;;;;;;4905921;29;20589;-74
2021/07/31 09:01:08;;;;;;;10.30;5.80;;;28.50;96.70;;;;;;4909832;29;20040;-74
2021/07/31 09:03:45;;;;;;;8.88;5.22;;;28.60;96.70;;;;;;4939073;28;20067;-73
2021/07/31 09:06:27;;;;;;;6.50;5.18;;;28.70;96.70;;;;;;4920495;28;20044;-73
2021/07/31 09:08:56;;;;;;;6.40;5.07;;;28.90;96.70;;;;;;4908356;29;20040;-73
2021/07/31 09:11:25;;;;;;;8.57;5.47;;;29.00;96.70;;;;;;4906371;29;20050;-73
2021/07/31 09:14:09;;;;;;;6.38;4.82;;;29.00;96.70;;;;;;4907719;29;20052;-72
2021/07/31 09:16:39;;;;;;;6.70;5.03;;;29.00;96.70;;;;;;4919009;29;20134;-73
2021/07/31 09:19:10;;;;;;;6.53;4.90;;;29.20;96.70;;;;;;4909169;29;20123;-74
2021/07/31 09:21:40;;;;;;;6.55;4.82;;;29.20;96.70;;;;;;4909627;29;20048;-76
2021/07/31 09:24:15;;;;;;;5.00;4.50;;;29.20;96.70;;;;;;4890047;29;20051;-76
2021/07/31 09:26:53;;;;;;;7.90;4.95;;;29.30;96.70;;;;;;4889163;29;20056;-76
2021/07/31 09:29:26;;;;;;;6.72;4.70;;;29.50;96.70;;;;;;4909559;29;20513;-75
2021/07/31 09:31:57;;;;;;;6.72;4.35;;;29.60;96.70;;;;;;4936694;28;20056;-75
2021/07/31 09:34:30;;;;;;;5.68;4.20;;;29.70;95.80;;;;;;4891322;29;20079;-76
2021/07/31 09:37:06;;;;;;;4.90;4.20;;;29.70;95.40;;;;;;4907016;29;20040;-73
2021/07/31 09:39:55;;;;;;;7.13;4.47;;;29.80;95.20;;;;;;4936614;28;20435;-72
2021/07/31 09:42:29;;;;;;;5.03;4.13;;;29.70;95.20;;;;;;4921369;29;20569;-72
2021/07/31 09:44:58;;;;;;;5.60;3.80;;;29.80;94.70;;;;;;4906473;29;20044;-71
2021/07/31 09:47:26;;;;;;;5.57;4.75;;;30.00;95.00;;;;;;4906041;29;20522;-73
2021/07/31 09:49:58;;;;;;;6.70;4.82;;;30.10;95.40;;;;;;4905792;29;20054;-73
2021/07/31 09:52:27;;;;;;;4.78;4.28;;;30.20;95.70;;;;;;4899256;29;20040;-74
2021/07/31 09:54:59;;;;;;;4.68;4.22;;;30.30;95.70;;;;;;4906298;29;20506;-73
2021/07/31 09:57:29;;;;;;;6.90;4.18;;;30.30;94.90;;;;;;4921381;29;20134;-74
2021/07/31 10:00:00;;;;;;;4.88;4.35;;;30.30;94.30;;;;;;4916333;29;20055;-73
2021/07/31 10:02:29;;;;;;;12.27;5.60;;;30.30;94.00;;;;;;4920345;29;20059;-74
2021/07/31 10:04:59;;;;;;;7.38;5.13;;;30.40;92.80;;;;;;4906111;29;20472;-75
2021/07/31 10:07:27;;;;;;;5.32;4.43;;;30.40;92.40;;;;;;4919307;29;20555;-75
2021/07/31 10:09:58;;;;;;;8.38;3.80;;;30.50;90.80;;;;;;4899943;29;20040;-76
2021/07/31 10:12:30;;;;;;;6.00;3.35;;;30.60;89.30;;;;;;4905992;29;20525;-73
2021/07/31 10:15:00;;;;;;;5.70;3.67;;;30.70;88.00;;;;;;4903429;29;20048;-73
2021/07/31 10:17:29;;;;;;;5.60;3.80;;;30.80;89.60;;;;;;4922470;29;20095;-75
2021/07/31 10:20:00;;;;;;;3.70;3.38;;;31.00;87.40;;;;;;4912490;29;20055;-74
2021/07/31 10:22:41;;;;;;;5.43;3.67;;;30.90;86.60;;;;;;4917567;29;20044;-75
2021/07/31 10:25:11;;;;;;;7.05;3.65;;;30.90;87.90;;;;;;4936994;28;20227;-75
2021/07/31 10:27:40;;;;;;;7.57;3.30;;;31.10;87.60;;;;;;4905001;29;20546;-73
2021/07/31 10:30:24;;;;;;;7.18;4.32;;;31.20;88.20;;;;;;4938604;28;20051;-74
2021/07/31 10:32:52;;;;;;;5.05;3.60;;;31.50;88.50;;;;;;4903761;29;20048;-74
2021/07/31 10:35:36;;;;;;;4.63;4.22;;;31.50;88.10;;;;;;4904560;29;20487;-74
2021/07/31 10:38:08;;;;;;;5.30;4.03;;;31.50;88.00;;;;;;4904081;29;20143;-74
2021/07/31 10:40:56;;;;;;;5.40;4.07;;;31.70;88.50;;;;;;4907541;29;20051;-76
2021/07/31 10:43:27;;;;;;;8.32;4.35;;;31.70;87.50;;;;;;4903076;29;20063;-73
2021/07/31 10:46:19;;;;;;;4.72;3.92;;;31.90;87.40;;;;;;4916422;29;20579;-73
2021/07/31 10:48:47;;;;;;;7.38;4.00;;;31.90;86.80;;;;;;4849683;29;1551208;-73
2021/07/31 10:51:44;;;;;;;5.78;3.85;;;31.80;87.70;;;;;;4908100;29;20048;-73
2021/07/31 10:54:13;;;;;;;5.38;4.20;;;32.00;87.90;;;;;;4901667;29;20139;-75
2021/07/31 10:56:57;;;;;;;4.53;4.05;;;32.30;87.60;;;;;;4907271;29;20048;-74
2021/07/31 10:59:26;;;;;;;5.78;4.18;;;32.30;86.10;;;;;;4921457;29;20410;-73
2021/07/31 11:02:31;;;;;;;5.47;3.78;;;32.50;84.30;;;;;;4906811;29;20600;-72
2021/07/31 11:05:00;;;;;;;6.25;3.95;;;32.50;83.30;;;;;;4902038;29;20243;-72
2021/07/31 11:07:30;;;;;;;5.32;3.90;;;32.60;83.00;;;;;;4906314;29;20141;-72
2021/07/31 11:10:42;;;;;;;4.75;3.92;;;32.60;83.40;;;;;;4909057;29;20501;-72
2021/07/31 11:13:12;;;;;;;6.43;3.88;;;32.70;83.90;;;;;;4905724;29;20556;-73
2021/07/31 11:16:18;;;;;;;4.75;3.60;;;32.80;82.30;;;;;;4906608;29;20127;-70
2021/07/31 11:18:48;;;;;;;5.68;4.05;;;33.00;82.80;;;;;;4908371;29;20115;-72
2021/07/31 11:21:18;;;;;;;6.63;3.90;;;33.10;80.60;;;;;;4918768;28;20075;-71
2021/07/31 11:23:50;;;;;;;5.03;3.40;;;33.10;81.10;;;;;;4922602;29;20052;-71
2021/07/31 11:26:43;;;;;;;4.05;3.72;;;32.90;80.60;;;;;;4907436;29;20088;-72
2021/07/31 11:29:14;;;;;;;6.05;3.67;;;33.00;79.90;;;;;;4908282;29;20063;-71
2021/07/31 11:31:45;;;;;;;5.97;3.42;;;33.20;80.00;;;;;;4903594;29;20107;-72
2021/07/31 11:34:13;;;;;;;4.50;4.00;;;33.30;79.60;;;;;;4906623;29;20048;-71
2021/07/31 11:36:53;;;;;;;5.55;4.30;;;33.40;79.60;;;;;;4919000;28;20080;-71
2021/07/31 11:39:23;;;;;;;4.70;4.18;;;33.30;79.90;;;;;;4909787;29;20051;-70
2021/07/31 11:41:57;;;;;;;4.20;3.85;;;33.40;80.30;;;;;;4908993;29;20048;-70
2021/07/31 11:44:27;;;;;;;7.50;4.43;;;33.50;80.00;;;;;;4908904;29;20439;-70
2021/07/31 11:46:56;;;;;;;4.97;3.70;;;33.80;79.80;;;;;;4906113;29;20052;-71
2021/07/31 11:49:26;;;;;;;4.68;3.80;;;34.00;78.40;;;;;;4907705;29;20511;-71
2021/07/31 11:51:56;;;;;;;4.07;3.70;;;33.90;78.30;;;;;;4909148;29;20082;-71
2021/07/31 11:54:26;;;;;;;8.27;4.30;;;34.00;78.70;;;;;;4906838;29;20059;-70
2021/07/31 11:56:56;;;;;;;5.20;4.10;;;34.00;78.50;;;;;;4909465;29;20044;-70
2021/07/31 11:59:26;;;;;;;4.97;4.20;;;34.00;78.80;;;;;;4907007;29;20612;-70
2021/07/31 12:01:55;;;;;;;4.68;4.13;;;34.10;79.50;;;;;;4908242;29;20044;-70
2021/07/31 12:04:46;;;;;;;4.97;3.70;;;34.20;80.10;;;;;;4911921;29;20044;-71
2021/07/31 12:07:17;;;;;;;4.80;4.25;;;34.20;80.50;;;;;;4912479;29;20039;-71
2021/07/31 12:09:59;;;;;;;6.63;4.30;;;34.20;80.50;;;;;;4915219;29;20506;-72
2021/07/31 12:12:29;;;;;;;6.15;4.22;;;34.20;80.80;;;;;;4915687;29;20043;-72
2021/07/31 12:15:15;;;;;;;5.93;4.53;;;34.20;81.00;;;;;;4909992;29;20047;-71
2021/07/31 12:18:02;;;;;;;;;;;34.30;81.00;;;;;;4920129;29;20068;-71
2021/07/31 12:20:35;;;;;;;4.78;4.38;;;34.40;80.40;;;;;;4906621;29;19927;-71
2021/07/31 12:23:06;;;;;;;6.40;4.70;;;34.60;80.10;;;;;;4909155;29;20040;-71
2021/07/31 12:25:37;;;;;;;4.82;4.32;;;34.60;79.90;;;;;;4908543;29;20076;-71
2021/07/31 12:28:09;;;;;;;6.05;4.47;;;34.70;80.20;;;;;;4908255;29;20068;-71
2021/07/31 12:30:43;;;;;;;4.43;3.88;;;34.80;79.60;;;;;;4909659;29;20158;-71
2021/07/31 12:33:17;;;;;;;7.95;5.32;;;34.60;80.00;;;;;;4909502;29;20044;-71
2021/07/31 12:35:46;;;;;;;7.72;4.72;;;34.80;80.20;;;;;;4892631;29;20083;-71
2021/07/31 12:38:18;;;;;;;8.20;4.75;;;34.80;80.10;;;;;;4904777;29;20075;-72
2021/07/31 12:40:53;;;;;;;5.55;4.85;;;34.70;80.10;;;;;;4920606;29;20080;-71
2021/07/31 12:43:26;;;;;;;7.10;4.13;;;34.70;79.90;;;;;;4905774;29;20052;-72
2021/07/31 12:45:58;;;;;;;6.20;4.55;;;34.70;80.00;;;;;;4909161;29;20048;-71
2021/07/31 12:48:28;;;;;;;4.75;4.07;;;34.80;81.00;;;;;;4904977;29;20060;-71
2021/07/31 12:50:57;;;;;;;5.90;4.20;;;34.90;80.50;;;;;;4908581;29;20044;-71
2021/07/31 12:53:28;;;;;;;5.57;4.90;;;34.90;81.60;;;;;;4907658;29;20036;-71
2021/07/31 12:55:58;;;;;;;13.60;5.50;;;34.70;83.50;;;;;;4908359;29;20132;-72
2021/07/31 12:58:26;;;;;;;6.25;4.90;;;34.60;83.60;;;;;;4904615;29;20417;-73
2021/07/31 13:00:55;;;;;;;7.50;5.43;;;34.50;85.00;;;;;;4907213;29;20072;-73
2021/07/31 13:03:24;;;;;;;9.30;6.05;;;34.40;85.30;;;;;;4905447;29;20055;-73
2021/07/31 13:05:53;;;;;;;7.50;5.28;;;34.40;85.60;;;;;;4916908;29;20051;-73
2021/07/31 13:08:21;;;;;;;7.10;5.18;;;34.40;86.40;;;;;;4903798;29;20044;-72
2021/07/31 13:10:50;;;;;;;5.47;4.68;;;34.40;86.50;;;;;;4922752;29;20111;-72
2021/07/31 13:13:23;;;;;;;5.35;4.78;;;34.30;86.20;;;;;;4907142;29;20043;-74
2021/07/31 13:15:52;;;;;;;5.55;4.75;;;34.20;86.70;;;;;;4905887;29;20044;-71
2021/07/31 13:18:21;;;;;;;5.97;4.55;;;34.20;85.80;;;;;;4921572;29;20044;-70
2021/07/31 13:20:50;;;;;;;5.93;4.47;;;34.10;85.50;;;;;;4890442;29;20512;-69